createdAt,value
2017-06-21T00:00:52.605Z,16.44
2017-06-21T00:01:52.582Z,16.34
2017-06-21T00:02:52.567Z,16.27
2017-06-21T00:03:52.542Z,16.22
2017-06-21T00:04:52.523Z,16.17
2017-06-21T00:05:52.502Z,16.18
2017-06-21T00:06:52.485Z,16.18
2017-06-21T00:07:52.464Z,16.26
2017-06-21T00:08:52.438Z,16.18
2017-06-21T00:09:52.426Z,16.07
2017-06-21T00:10:52.449Z,16.13
2017-06-21T00:11:52.386Z,16.14
2017-06-21T00:12:52.356Z,16.03
2017-06-21T00:13:52.337Z,16.07
2017-06-21T00:14:52.318Z,16.11
2017-06-21T00:15:52.295Z,16.03
2017-06-21T00:16:52.285Z,16.06
2017-06-21T00:17:52.258Z,15.99
2017-06-21T00:18:52.237Z,15.95
2017-06-21T00:19:52.514Z,15.95
2017-06-21T00:20:52.249Z,15.98
2017-06-21T00:21:52.177Z,15.93
2017-06-21T00:22:52.157Z,15.92
2017-06-21T00:23:52.135Z,15.95
2017-06-21T00:24:52.122Z,15.96
2017-06-21T00:25:52.098Z,15.95
2017-06-21T00:26:52.083Z,16.01
2017-06-21T00:27:51.754Z,15.99
2017-06-21T00:28:52.079Z,15.93
2017-06-21T00:29:52.020Z,15.88
2017-06-21T00:30:51.994Z,15.98
2017-06-21T00:31:51.973Z,15.96
2017-06-21T00:32:51.947Z,15.81
2017-06-21T00:33:51.927Z,15.84
2017-06-21T00:34:51.911Z,15.78
2017-06-21T00:35:51.889Z,15.84
2017-06-21T00:36:52.174Z,15.78
2017-06-21T00:37:51.850Z,15.76
2017-06-21T00:38:51.879Z,15.73
2017-06-21T00:39:51.802Z,15.58
2017-06-21T00:40:51.789Z,15.7
2017-06-21T00:41:51.775Z,15.58
2017-06-21T00:42:51.750Z,15.62
2017-06-21T00:43:51.725Z,15.68
2017-06-21T00:44:51.704Z,15.6
2017-06-21T00:45:51.691Z,15.49
2017-06-21T00:46:51.662Z,15.52
2017-06-21T00:47:51.650Z,15.56
2017-06-21T00:48:51.627Z,15.49
2017-06-21T00:49:51.602Z,15.48
2017-06-21T00:50:51.580Z,15.49
2017-06-21T00:51:51.262Z,15.49
2017-06-21T00:52:51.548Z,15.37
2017-06-21T00:53:51.521Z,15.4
2017-06-21T00:54:51.503Z,15.48
2017-06-21T00:55:51.484Z,15.41
2017-06-21T00:56:51.465Z,15.46
2017-06-21T00:57:51.481Z,15.35
2017-06-21T00:58:51.470Z,15.37
2017-06-21T00:59:51.399Z,15.38
2017-06-21T01:00:51.390Z,15.38
2017-06-21T01:01:51.420Z,15.35
2017-06-21T01:02:51.342Z,15.27
2017-06-21T01:03:51.323Z,15.27
2017-06-21T01:04:51.298Z,15.25
2017-06-21T01:05:51.281Z,15.3
2017-06-21T01:06:51.256Z,15.27
2017-06-21T01:07:51.234Z,15.34
2017-06-21T01:08:51.221Z,15.33
2017-06-21T01:09:51.199Z,15.25
2017-06-21T01:10:51.171Z,15.27
2017-06-21T01:11:51.151Z,15.23
2017-06-21T01:12:51.158Z,15.28
2017-06-21T01:13:51.110Z,15.3
2017-06-21T01:14:51.101Z,15.13
2017-06-21T01:15:50.772Z,15.12
2017-06-21T01:16:51.053Z,15.12
2017-06-21T01:17:51.025Z,15.12
2017-06-21T01:18:51.014Z,15.13
2017-06-21T01:19:50.991Z,15.11
2017-06-21T01:20:50.966Z,15.11
2017-06-21T01:21:51.001Z,14.98
2017-06-21T01:22:50.932Z,15.01
2017-06-21T01:23:50.908Z,15.07
2017-06-21T01:24:50.893Z,15.09
2017-06-21T01:25:50.860Z,15
2017-06-21T01:26:50.844Z,14.98
2017-06-21T01:27:50.821Z,14.9
2017-06-21T01:28:50.801Z,15
2017-06-21T01:29:50.780Z,15.01
2017-06-21T01:30:50.763Z,15.05
2017-06-21T01:31:50.745Z,14.98
2017-06-21T01:32:50.720Z,15.03
2017-06-21T01:33:50.703Z,14.98
2017-06-21T01:34:50.429Z,14.87
2017-06-21T01:35:50.660Z,14.9
2017-06-21T01:36:50.637Z,14.87
2017-06-21T01:37:50.615Z,14.95
2017-06-21T01:38:50.598Z,14.97
2017-06-21T01:39:50.575Z,14.9
2017-06-21T01:40:50.566Z,14.86
2017-06-21T01:41:50.536Z,14.83
2017-06-21T01:42:50.511Z,14.82
2017-06-21T01:43:50.493Z,14.82
2017-06-21T01:44:50.471Z,14.74
2017-06-21T01:45:50.460Z,14.87
2017-06-21T01:46:50.427Z,14.79
2017-06-21T01:47:50.415Z,14.74
2017-06-21T01:48:50.391Z,14.72
2017-06-21T01:49:50.367Z,14.69
2017-06-21T01:50:50.345Z,14.61
2017-06-21T01:51:50.337Z,14.61
2017-06-21T01:52:50.301Z,14.64
2017-06-21T01:53:50.288Z,14.67
2017-06-21T01:54:50.264Z,14.64
2017-06-21T01:55:49.942Z,14.56
2017-06-21T01:56:49.915Z,14.61
2017-06-21T01:57:50.195Z,14.53
2017-06-21T01:58:50.176Z,14.54
2017-06-21T01:59:49.865Z,14.57
2017-06-21T02:00:50.144Z,14.59
2017-06-21T02:01:49.866Z,14.61
2017-06-21T02:02:50.092Z,14.59
2017-06-21T02:03:50.074Z,14.6
2017-06-21T02:04:50.054Z,14.52
2017-06-21T02:05:50.031Z,14.54
2017-06-21T02:06:50.017Z,14.53
2017-06-21T02:07:49.989Z,14.45
2017-06-21T02:08:49.973Z,14.46
2017-06-21T02:09:49.956Z,14.54
2017-06-21T02:10:49.928Z,14.48
2017-06-21T02:11:49.920Z,14.54
2017-06-21T02:12:49.882Z,14.41
2017-06-21T02:13:49.871Z,14.54
2017-06-21T02:14:49.848Z,14.46
2017-06-21T02:15:49.829Z,14.49
2017-06-21T02:16:49.806Z,14.49
2017-06-21T02:17:49.788Z,14.42
2017-06-21T02:18:49.815Z,14.49
2017-06-21T02:19:49.734Z,14.46
2017-06-21T02:20:49.775Z,14.38
2017-06-21T02:21:49.700Z,14.39
2017-06-21T02:22:49.678Z,14.36
2017-06-21T02:23:49.060Z,14.27
2017-06-21T02:24:49.633Z,14.29
2017-06-21T02:25:49.615Z,14.34
2017-06-21T02:26:49.594Z,14.21
2017-06-21T02:27:49.572Z,14.23
2017-06-21T02:28:49.304Z,14.19
2017-06-21T02:29:49.538Z,14.23
2017-06-21T02:30:49.515Z,14.12
2017-06-21T02:31:49.490Z,14.19
2017-06-21T02:32:49.470Z,14.13
2017-06-21T02:33:49.447Z,14.17
2017-06-21T02:34:49.184Z,14.19
2017-06-21T02:35:49.407Z,14.12
2017-06-21T02:36:49.385Z,14.21
2017-06-21T02:37:49.380Z,14.21
2017-06-21T02:38:49.346Z,14.08
2017-06-21T02:39:49.370Z,14.13
2017-06-21T02:40:49.301Z,14.17
2017-06-21T02:41:49.281Z,14.13
2017-06-21T02:42:49.313Z,14.06
2017-06-21T02:43:49.241Z,14.08
2017-06-21T02:44:48.924Z,14.04
2017-06-21T02:45:49.198Z,14.08
2017-06-21T02:46:49.225Z,14.08
2017-06-21T02:47:49.156Z,14.19
2017-06-21T02:48:49.142Z,14.13
2017-06-21T02:49:49.109Z,14.08
2017-06-21T02:50:49.096Z,14.21
2017-06-21T02:51:49.077Z,14.06
2017-06-21T02:52:49.052Z,14.12
2017-06-21T02:53:49.029Z,14.16
2017-06-21T02:54:49.063Z,14.05
2017-06-21T02:55:48.986Z,14.06
2017-06-21T02:56:48.969Z,14.2
2017-06-21T02:57:48.948Z,14.12
2017-06-21T02:58:48.924Z,14.09
2017-06-21T02:59:48.901Z,14.11
2017-06-21T03:00:48.884Z,13.98
2017-06-21T03:01:48.861Z,14.01
2017-06-21T03:02:48.844Z,14.04
2017-06-21T03:03:48.519Z,14.01
2017-06-21T03:04:48.801Z,14.05
2017-06-21T03:05:48.779Z,13.99
2017-06-21T03:06:48.759Z,14.05
2017-06-21T03:07:48.736Z,14.01
2017-06-21T03:08:48.709Z,13.94
2017-06-21T03:09:48.387Z,13.93
2017-06-21T03:10:48.670Z,13.96
2017-06-21T03:11:48.653Z,13.9
2017-06-21T03:12:48.628Z,13.96
2017-06-21T03:13:48.608Z,13.91
2017-06-21T03:14:48.583Z,13.99
2017-06-21T03:15:48.563Z,13.9
2017-06-21T03:16:48.542Z,13.93
2017-06-21T03:17:48.530Z,13.93
2017-06-21T03:18:48.502Z,13.86
2017-06-21T03:19:48.532Z,13.8
2017-06-21T03:20:48.464Z,13.83
2017-06-21T03:21:48.449Z,13.93
2017-06-21T03:22:48.474Z,13.88
2017-06-21T03:23:48.399Z,13.9
2017-06-21T03:24:48.378Z,13.94
2017-06-21T03:25:48.362Z,13.93
2017-06-21T03:26:48.337Z,13.93
2017-06-21T03:27:48.362Z,13.96
2017-06-21T03:28:48.289Z,13.87
2017-06-21T03:29:48.269Z,13.96
2017-06-21T03:30:48.250Z,13.86
2017-06-21T03:31:47.935Z,13.91
2017-06-21T03:32:48.207Z,13.86
2017-06-21T03:33:48.185Z,13.86
2017-06-21T03:34:48.165Z,13.93
2017-06-21T03:35:48.152Z,13.91
2017-06-21T03:36:48.122Z,13.84
2017-06-21T03:37:48.161Z,13.94
2017-06-21T03:38:48.080Z,13.93
2017-06-21T03:39:48.067Z,13.84
2017-06-21T03:40:48.091Z,13.9
2017-06-21T03:41:48.015Z,13.99
2017-06-21T03:42:48.001Z,13.93
2017-06-21T03:43:47.980Z,13.99
2017-06-21T03:44:47.955Z,13.96
2017-06-21T03:45:47.938Z,14.01
2017-06-21T03:46:47.912Z,13.98
2017-06-21T03:47:47.889Z,13.94
2017-06-21T03:48:47.870Z,14.04
2017-06-21T03:49:47.853Z,13.98
2017-06-21T03:50:47.836Z,14.04
2017-06-21T03:51:47.808Z,14.05
2017-06-21T03:52:47.791Z,14.09
2017-06-21T03:53:47.775Z,14.08
2017-06-21T03:54:47.794Z,14.24
2017-06-21T03:55:47.725Z,14.19
2017-06-21T03:56:47.700Z,14.3
2017-06-21T03:57:47.688Z,14.31
2017-06-21T03:58:47.664Z,14.3
2017-06-21T03:59:47.638Z,14.42
2017-06-21T04:00:47.614Z,14.46
2017-06-21T04:01:47.606Z,14.54
2017-06-21T04:02:47.578Z,14.53
2017-06-21T04:03:47.557Z,14.67
2017-06-21T04:04:47.534Z,14.69
2017-06-21T04:05:47.571Z,14.63
2017-06-21T04:06:47.489Z,14.64
2017-06-21T04:07:47.477Z,14.66
2017-06-21T04:08:47.459Z,14.69
2017-06-21T04:09:47.438Z,14.82
2017-06-21T04:10:47.421Z,14.72
2017-06-21T04:11:47.396Z,14.8
2017-06-21T04:12:47.065Z,14.83
2017-06-21T04:13:47.347Z,14.9
2017-06-21T04:14:47.383Z,14.95
2017-06-21T04:15:47.314Z,15.04
2017-06-21T04:16:47.292Z,15.01
2017-06-21T04:17:47.272Z,15.12
2017-06-21T04:18:47.249Z,15.16
2017-06-21T04:19:47.236Z,15.28
2017-06-21T04:20:47.217Z,15.23
2017-06-21T04:21:47.194Z,15.35
2017-06-21T04:22:46.879Z,15.34
2017-06-21T04:23:47.145Z,15.35
2017-06-21T04:24:47.186Z,15.4
2017-06-21T04:25:47.107Z,15.53
2017-06-21T04:26:46.791Z,15.59
2017-06-21T04:27:47.070Z,15.68
2017-06-21T04:28:47.051Z,15.74
2017-06-21T04:29:47.023Z,15.84
2017-06-21T04:30:47.020Z,15.88
2017-06-21T04:31:46.686Z,15.93
2017-06-21T04:32:46.971Z,16.03
2017-06-21T04:33:46.953Z,16.13
2017-06-21T04:34:46.934Z,16.22
2017-06-21T04:35:46.909Z,16.34
2017-06-21T04:36:46.890Z,16.29
2017-06-21T04:37:46.922Z,16.47
2017-06-21T04:38:46.855Z,16.5
2017-06-21T04:39:46.828Z,16.59
2017-06-21T04:40:46.814Z,16.66
2017-06-21T04:41:46.798Z,16.75
2017-06-21T04:42:46.772Z,16.82
2017-06-21T04:43:46.755Z,16.77
2017-06-21T04:44:46.735Z,16.92
2017-06-21T04:45:46.762Z,16.96
2017-06-21T04:46:46.699Z,16.91
2017-06-21T04:47:46.682Z,16.81
2017-06-21T04:48:46.658Z,16.77
2017-06-21T04:49:46.340Z,16.92
2017-06-21T04:50:46.624Z,16.88
2017-06-21T04:51:46.597Z,16.9
2017-06-21T04:52:46.588Z,16.91
2017-06-21T04:53:46.562Z,16.91
2017-06-21T04:54:46.550Z,16.92
2017-06-21T04:55:46.526Z,16.98
2017-06-21T04:56:46.509Z,17.1
2017-06-21T04:57:46.488Z,17.15
2017-06-21T04:58:46.476Z,17.3
2017-06-21T04:59:46.449Z,17.35
2017-06-21T05:00:46.435Z,17.49
2017-06-21T05:01:46.411Z,17.47
2017-06-21T05:02:46.402Z,17.57
2017-06-21T05:03:46.375Z,17.47
2017-06-21T05:04:46.357Z,17.46
2017-06-21T05:05:46.335Z,17.47
2017-06-21T05:06:46.329Z,17.49
2017-06-21T05:07:46.306Z,17.43
2017-06-21T05:08:46.284Z,17.36
2017-06-21T05:09:46.299Z,17.33
2017-06-21T05:10:46.254Z,17.38
2017-06-21T05:11:46.278Z,17.6
2017-06-21T05:12:46.216Z,17.73
2017-06-21T05:13:46.195Z,17.84
2017-06-21T05:14:46.171Z,17.98
2017-06-21T05:15:46.158Z,18.28
2017-06-21T05:16:46.142Z,18.38
2017-06-21T05:17:46.122Z,18.53
2017-06-21T05:18:46.113Z,18.57
2017-06-21T05:19:46.085Z,18.47
2017-06-21T05:20:46.068Z,18.5
2017-06-21T05:21:46.055Z,18.41
2017-06-21T05:22:46.041Z,18.53
2017-06-21T05:23:46.012Z,18.51
2017-06-21T05:24:45.995Z,18.5
2017-06-21T05:25:45.980Z,18.56
2017-06-21T05:26:45.964Z,18.53
2017-06-21T05:27:45.939Z,18.35
2017-06-21T05:28:45.936Z,18.38
2017-06-21T05:29:45.661Z,18.47
2017-06-21T05:30:45.892Z,18.5
2017-06-21T05:31:45.877Z,18.56
2017-06-21T05:32:45.857Z,18.56
2017-06-21T05:33:45.840Z,18.5
2017-06-21T05:34:45.825Z,18.39
2017-06-21T05:35:45.806Z,18.35
2017-06-21T05:36:45.786Z,18.34
2017-06-21T05:37:45.860Z,18.31
2017-06-21T05:38:45.754Z,18.39
2017-06-21T05:39:45.739Z,18.38
2017-06-21T05:40:45.728Z,18.56
2017-06-21T05:41:45.700Z,18.56
2017-06-21T05:42:45.686Z,18.66
2017-06-21T05:43:45.660Z,18.71
2017-06-21T05:44:45.645Z,18.97
2017-06-21T05:45:45.642Z,19.15
2017-06-21T05:46:45.613Z,19.34
2017-06-21T05:47:45.599Z,19.31
2017-06-21T05:48:45.284Z,19.38
2017-06-21T05:49:45.560Z,19.25
2017-06-21T05:50:45.546Z,19.23
2017-06-21T05:51:45.224Z,19.35
2017-06-21T05:52:45.517Z,19.49
2017-06-21T05:53:45.498Z,19.65
2017-06-21T05:54:45.486Z,19.72
2017-06-21T05:55:45.461Z,19.75
2017-06-21T05:56:45.450Z,19.67
2017-06-21T05:57:45.438Z,19.62
2017-06-21T05:58:45.417Z,19.71
2017-06-21T05:59:45.401Z,19.83
2017-06-21T06:00:45.386Z,19.82
2017-06-21T06:01:45.360Z,19.8
2017-06-21T06:02:45.398Z,19.98
2017-06-21T06:03:45.331Z,19.9
2017-06-21T06:04:45.316Z,19.92
2017-06-21T06:05:45.299Z,19.95
2017-06-21T06:06:45.278Z,20.02
2017-06-21T06:07:45.263Z,20.05
2017-06-21T06:08:45.255Z,20.23
2017-06-21T06:09:45.232Z,20.2
2017-06-21T06:10:45.218Z,20.38
2017-06-21T06:11:45.206Z,20.64
2017-06-21T06:12:45.185Z,20.75
2017-06-21T06:13:45.175Z,20.63
2017-06-21T06:14:45.156Z,20.63
2017-06-21T06:15:45.191Z,20.6
2017-06-21T06:16:45.132Z,20.69
2017-06-21T06:17:45.159Z,20.76
2017-06-21T06:18:45.087Z,20.81
2017-06-21T06:19:45.076Z,20.91
2017-06-21T06:20:45.065Z,20.94
2017-06-21T06:21:45.042Z,20.9
2017-06-21T06:22:45.029Z,21.03
2017-06-21T06:23:44.713Z,21.26
2017-06-21T06:24:44.998Z,21.51
2017-06-21T06:25:45.279Z,21.55
2017-06-21T06:26:44.981Z,21.56
2017-06-21T06:27:44.948Z,21.59
2017-06-21T06:28:44.639Z,21.52
2017-06-21T06:29:44.685Z,21.51
2017-06-21T06:30:44.910Z,21.73
2017-06-21T06:31:44.892Z,21.74
2017-06-21T06:32:44.876Z,21.96
2017-06-21T06:33:44.565Z,22.11
2017-06-21T06:34:44.855Z,22.04
2017-06-21T06:35:44.847Z,21.99
2017-06-21T06:36:44.534Z,21.79
2017-06-21T06:37:44.804Z,21.74
2017-06-21T06:38:44.793Z,21.67
2017-06-21T06:39:44.784Z,21.66
2017-06-21T06:40:44.768Z,21.7
2017-06-21T06:41:44.750Z,21.83
2017-06-21T06:42:44.733Z,21.96
2017-06-21T06:43:44.721Z,21.75
2017-06-21T06:44:44.712Z,21.85
2017-06-21T06:45:44.746Z,22.11
2017-06-21T06:46:44.679Z,22.21
2017-06-21T06:47:44.373Z,22.3
2017-06-21T06:48:44.647Z,22.45
2017-06-21T06:49:44.680Z,22.59
2017-06-21T06:50:44.631Z,22.56
2017-06-21T06:51:44.609Z,22.46
2017-06-21T06:52:44.301Z,22.41
2017-06-21T06:53:44.287Z,22.2
2017-06-21T06:54:44.273Z,22.23
2017-06-21T06:55:44.560Z,22.12
2017-06-21T06:56:44.548Z,22.2
2017-06-21T06:57:44.530Z,22.21
2017-06-21T06:58:44.521Z,22.08
2017-06-21T06:59:44.211Z,21.98
2017-06-21T07:00:44.495Z,22.01
2017-06-21T07:01:44.473Z,22.02
2017-06-21T07:02:44.486Z,22.23
2017-06-21T07:03:44.454Z,22.41
2017-06-21T07:04:44.441Z,22.59
2017-06-21T07:05:44.432Z,22.79
2017-06-21T07:06:44.409Z,23.01
2017-06-21T07:07:44.406Z,23.07
2017-06-21T07:08:44.381Z,23.39
2017-06-21T07:09:44.376Z,23.39
2017-06-21T07:10:44.359Z,23.25
2017-06-21T07:11:44.346Z,23.23
2017-06-21T07:12:44.339Z,23.04
2017-06-21T07:13:44.320Z,23.18
2017-06-21T07:14:44.318Z,23.39
2017-06-21T07:15:44.298Z,23.54
2017-06-21T07:16:44.302Z,23.57
2017-06-21T07:17:44.282Z,23.59
2017-06-21T07:18:43.968Z,23.56
2017-06-21T07:19:44.258Z,23.59
2017-06-21T07:20:44.288Z,23.63
2017-06-21T07:21:43.929Z,23.89
2017-06-21T07:22:44.217Z,24.11
2017-06-21T07:23:44.213Z,24.16
2017-06-21T07:24:44.199Z,24.15
2017-06-21T07:25:44.184Z,24.11
2017-06-21T07:26:44.183Z,24.26
2017-06-21T07:27:44.153Z,24.26
2017-06-21T07:28:44.147Z,24.31
2017-06-21T07:29:44.134Z,24.29
2017-06-21T07:30:44.130Z,24.26
2017-06-21T07:31:44.114Z,24.3
2017-06-21T07:32:44.110Z,24.56
2017-06-21T07:33:44.083Z,24.87
2017-06-21T07:34:44.083Z,24.86
2017-06-21T07:35:44.066Z,24.94
2017-06-21T07:36:44.057Z,25.08
2017-06-21T07:37:44.051Z,25.11
2017-06-21T07:38:44.042Z,25.01
2017-06-21T07:39:44.227Z,25.12
2017-06-21T07:40:44.008Z,25.11
2017-06-21T07:41:44.008Z,25.02
2017-06-21T07:42:43.994Z,25.11
2017-06-21T07:43:43.978Z,25.02
2017-06-21T07:44:44.027Z,25.02
2017-06-21T07:45:43.967Z,25.04
2017-06-21T07:46:43.959Z,25.07
2017-06-21T07:47:43.938Z,25.35
2017-06-21T07:48:43.928Z,25.67
2017-06-21T07:49:43.923Z,25.91
2017-06-21T07:50:43.910Z,25.98
2017-06-21T07:51:43.900Z,25.74
2017-06-21T07:52:43.889Z,25.64
2017-06-21T07:53:44.082Z,25.64
2017-06-21T07:54:43.873Z,25.61
2017-06-21T07:55:43.562Z,25.48
2017-06-21T07:56:43.550Z,25.6
2017-06-21T07:57:43.843Z,25.69
2017-06-21T07:58:43.832Z,25.93
2017-06-21T07:59:43.819Z,26.04
2017-06-21T08:00:43.811Z,26.42
2017-06-21T08:01:43.801Z,26.64
2017-06-21T08:02:43.796Z,26.97
2017-06-21T08:03:43.788Z,27.01
2017-06-21T08:04:43.785Z,27.05
2017-06-21T08:05:43.821Z,27.13
2017-06-21T08:06:43.758Z,27.24
2017-06-21T08:07:43.753Z,27.18
2017-06-21T08:08:43.745Z,27.08
2017-06-21T08:09:43.735Z,27.21
2017-06-21T08:10:43.735Z,27.52
2017-06-21T08:11:43.725Z,27.71
2017-06-21T08:12:43.715Z,27.69
2017-06-21T08:13:43.696Z,27.65
2017-06-21T08:14:43.695Z,27.68
2017-06-21T08:15:43.690Z,27.68
2017-06-21T08:16:43.726Z,27.69
2017-06-21T08:17:43.976Z,27.72
2017-06-21T08:18:43.660Z,27.8
2017-06-21T08:19:43.699Z,27.98
2017-06-21T08:20:43.654Z,28.01
2017-06-21T08:21:43.646Z,28.14
2017-06-21T08:22:43.635Z,28.18
2017-06-21T08:23:43.336Z,28.15
2017-06-21T08:24:43.617Z,28.11
2017-06-21T08:25:43.609Z,28.13
2017-06-21T08:26:43.601Z,28.02
2017-06-21T08:27:43.601Z,28.08
2017-06-21T08:28:43.583Z,28.05
2017-06-21T08:29:43.589Z,27.93
2017-06-21T08:30:43.569Z,28.03
2017-06-21T08:31:43.570Z,27.98
2017-06-21T08:32:43.566Z,27.93
2017-06-21T08:33:43.567Z,27.69
2017-06-21T08:34:43.250Z,27.42
2017-06-21T08:35:43.745Z,27.43
2017-06-21T08:36:43.528Z,27.53
2017-06-21T08:37:43.732Z,27.87
2017-06-21T08:38:43.513Z,28.02
2017-06-21T08:39:43.514Z,27.98
2017-06-21T08:40:43.501Z,28.02
2017-06-21T08:41:43.494Z,27.99
2017-06-21T08:42:43.484Z,27.98
2017-06-21T08:43:43.489Z,28.01
2017-06-21T08:44:43.472Z,27.95
2017-06-21T08:45:43.464Z,27.96
2017-06-21T08:46:43.464Z,27.87
2017-06-21T08:47:43.457Z,27.96
2017-06-21T08:48:43.452Z,27.84
2017-06-21T08:49:43.442Z,27.66
2017-06-21T08:50:43.427Z,27.49
2017-06-21T08:51:43.429Z,27.66
2017-06-21T08:52:43.470Z,27.77
2017-06-21T08:53:43.417Z,28.18
2017-06-21T08:54:43.405Z,28.23
2017-06-21T08:55:43.404Z,28.27
2017-06-21T08:56:43.469Z,28.33
2017-06-21T08:57:43.378Z,28.61
2017-06-21T08:58:43.373Z,28.85
2017-06-21T08:59:43.414Z,28.83
2017-06-21T09:00:43.366Z,28.79
2017-06-21T09:01:43.359Z,28.72
2017-06-21T09:02:43.350Z,28.52
2017-06-21T09:03:43.339Z,28.62
2017-06-21T09:04:43.343Z,28.69
2017-06-21T09:05:43.329Z,28.57
2017-06-21T09:06:43.020Z,28.4
2017-06-21T09:07:43.318Z,28.36
2017-06-21T09:08:43.305Z,28.39
2017-06-21T09:09:43.302Z,28.28
2017-06-21T09:10:43.288Z,28.45
2017-06-21T09:11:43.298Z,28.77
2017-06-21T09:12:43.338Z,28.97
2017-06-21T09:13:43.272Z,29.27
2017-06-21T09:14:43.266Z,29.6
2017-06-21T09:15:43.258Z,29.67
2017-06-21T09:16:43.255Z,29.44
2017-06-21T09:17:43.256Z,29.18
2017-06-21T09:18:43.237Z,29.35
2017-06-21T09:19:43.238Z,29.26
2017-06-21T09:20:43.235Z,29.44
2017-06-21T09:21:43.225Z,29.58
2017-06-21T09:22:43.218Z,29.57
2017-06-21T09:23:43.207Z,29.37
2017-06-21T09:24:43.247Z,29.32
2017-06-21T09:25:43.200Z,29.2
2017-06-21T09:26:43.197Z,29.05
2017-06-21T09:27:43.187Z,29
2017-06-21T09:28:43.204Z,28.94
2017-06-21T09:29:43.176Z,28.87
2017-06-21T09:30:43.168Z,28.83
2017-06-21T09:31:43.189Z,28.83
2017-06-21T09:32:43.112Z,28.82
2017-06-21T09:33:43.157Z,28.89
2017-06-21T09:34:43.139Z,29.14
2017-06-21T09:35:43.132Z,29.14
2017-06-21T09:36:43.123Z,29.42
2017-06-21T09:37:43.119Z,29.51
2017-06-21T09:38:43.113Z,29.57
2017-06-21T09:39:43.111Z,29.58
2017-06-21T09:40:43.104Z,29.54
2017-06-21T09:41:42.794Z,29.6
2017-06-21T09:42:43.087Z,29.7
2017-06-21T09:43:43.075Z,29.66
2017-06-21T09:44:43.075Z,29.69
2017-06-21T09:45:43.107Z,29.54
2017-06-21T09:46:43.060Z,29.57
2017-06-21T09:47:43.092Z,29.54
2017-06-21T09:48:43.058Z,29.35
2017-06-21T09:49:43.036Z,29.25
2017-06-21T09:50:42.740Z,29.33
2017-06-21T09:51:43.069Z,29.47
2017-06-21T09:52:43.032Z,29.62
2017-06-21T09:53:43.011Z,29.64
2017-06-21T09:54:43.003Z,29.64
2017-06-21T09:55:42.999Z,29.7
2017-06-21T09:56:42.988Z,29.66
2017-06-21T09:57:43.201Z,29.58
2017-06-21T09:58:42.994Z,29.54
2017-06-21T09:59:42.976Z,29.67
2017-06-21T10:00:42.967Z,29.6
2017-06-21T10:01:42.972Z,29.45
2017-06-21T10:02:43.049Z,29.18
2017-06-21T10:03:42.940Z,29.15
2017-06-21T10:04:42.945Z,28.79
2017-06-21T10:05:42.930Z,28.67
2017-06-21T10:06:42.921Z,28.48
2017-06-21T10:07:42.917Z,28.32
2017-06-21T10:08:42.616Z,28.32
2017-06-21T10:09:42.915Z,28.54
2017-06-21T10:10:42.893Z,28.64
2017-06-21T10:11:42.887Z,28.95
2017-06-21T10:12:42.882Z,29.29
2017-06-21T10:13:42.872Z,29.26
2017-06-21T10:14:42.865Z,29.32
2017-06-21T10:15:42.957Z,29.12
2017-06-21T10:16:42.846Z,28.92
2017-06-21T10:17:42.834Z,28.82
2017-06-21T10:18:42.832Z,28.74
2017-06-21T10:19:42.831Z,28.67
2017-06-21T10:20:42.837Z,28.89
2017-06-21T10:21:42.817Z,29.14
2017-06-21T10:22:43.107Z,29.15
2017-06-21T10:23:42.492Z,29.18
2017-06-21T10:24:42.792Z,29.33
2017-06-21T10:25:42.782Z,29.57
2017-06-21T10:26:42.520Z,29.41
2017-06-21T10:27:42.764Z,29.26
2017-06-21T10:28:42.761Z,29.14
2017-06-21T10:29:42.754Z,29.07
2017-06-21T10:30:42.445Z,29.12
2017-06-21T10:31:42.744Z,29.3
2017-06-21T10:32:42.738Z,29.25
2017-06-21T10:33:42.735Z,29.11
2017-06-21T10:34:42.771Z,29.17
2017-06-21T10:35:42.717Z,29.03
2017-06-21T10:36:42.714Z,28.87
2017-06-21T10:37:42.728Z,28.76
2017-06-21T10:38:42.690Z,28.46
2017-06-21T10:39:42.434Z,28.38
2017-06-21T10:40:42.379Z,28.28
2017-06-21T10:41:42.687Z,28.35
2017-06-21T10:42:42.659Z,28.3
2017-06-21T10:43:42.653Z,28.25
2017-06-21T10:44:42.643Z,28.21
2017-06-21T10:45:42.661Z,27.95
2017-06-21T10:46:42.629Z,27.74
2017-06-21T10:47:42.620Z,27.87
2017-06-21T10:48:42.652Z,27.87
2017-06-21T10:49:42.356Z,27.9
2017-06-21T10:50:42.291Z,28.03
2017-06-21T10:51:42.586Z,27.99
2017-06-21T10:52:42.592Z,27.83
2017-06-21T10:53:42.576Z,27.76
2017-06-21T10:54:42.618Z,27.78
2017-06-21T10:55:42.600Z,27.69
2017-06-21T10:56:42.549Z,27.66
2017-06-21T10:57:42.786Z,27.68
2017-06-21T10:58:42.519Z,27.86
2017-06-21T10:59:42.518Z,27.84
2017-06-21T11:00:42.507Z,27.87
2017-06-21T11:01:42.545Z,27.69
2017-06-21T11:02:42.481Z,27.42
2017-06-21T11:03:42.520Z,27.23
2017-06-21T11:04:42.166Z,27.23
2017-06-21T11:05:42.453Z,27.13
2017-06-21T11:06:42.445Z,27.03
2017-06-21T11:07:42.431Z,27.02
2017-06-21T11:08:42.429Z,26.98
2017-06-21T11:09:42.107Z,27.11
2017-06-21T11:10:42.109Z,27.16
2017-06-21T11:11:42.397Z,27.06
2017-06-21T11:12:42.379Z,27.01
2017-06-21T11:13:42.387Z,26.98
2017-06-21T11:14:42.354Z,27.12
2017-06-21T11:15:42.351Z,27.49
2017-06-21T11:16:42.339Z,27.77
2017-06-21T11:17:42.336Z,27.72
2017-06-21T11:18:42.323Z,27.63
2017-06-21T11:19:42.310Z,27.43
2017-06-21T11:20:42.321Z,27.09
2017-06-21T11:21:42.284Z,26.83
2017-06-21T11:22:42.283Z,26.59
2017-06-21T11:23:42.262Z,26.38
2017-06-21T11:24:42.253Z,26.2
2017-06-21T11:25:42.243Z,26.19
2017-06-21T11:26:42.281Z,26.04
2017-06-21T11:27:42.212Z,25.93
2017-06-21T11:28:42.200Z,25.97
2017-06-21T11:29:42.188Z,25.94
2017-06-21T11:30:42.180Z,25.85
2017-06-21T11:31:42.167Z,25.86
2017-06-21T11:32:42.146Z,25.82
2017-06-21T11:33:42.139Z,25.83
2017-06-21T11:34:42.123Z,25.83
2017-06-21T11:35:42.123Z,25.86
2017-06-21T11:36:42.099Z,25.74
2017-06-21T11:37:42.085Z,25.69
2017-06-21T11:38:42.119Z,25.76
2017-06-21T11:39:41.779Z,25.86
2017-06-21T11:40:42.045Z,25.94
2017-06-21T11:41:56.637Z,26.04
2017-06-21T11:42:42.012Z,26.01
2017-06-21T11:43:41.997Z,26.01
2017-06-21T11:44:41.985Z,26.11
2017-06-21T11:45:41.970Z,26.16
2017-06-21T11:46:41.957Z,26.16
2017-06-21T11:47:41.992Z,26.27
2017-06-21T11:48:41.921Z,26.23
2017-06-21T11:49:41.918Z,26.36
2017-06-21T11:50:41.946Z,26.47
2017-06-21T11:51:41.887Z,26.41
2017-06-21T11:52:41.593Z,26.53
2017-06-21T11:53:41.857Z,26.66
2017-06-21T11:54:41.865Z,26.6
2017-06-21T11:55:41.824Z,26.57
2017-06-21T11:56:41.806Z,26.61
2017-06-21T11:57:41.795Z,26.68
2017-06-21T11:58:41.535Z,26.73
2017-06-21T11:59:41.765Z,26.79
2017-06-21T12:00:41.461Z,26.73
2017-06-21T12:01:41.953Z,26.71
2017-06-21T12:02:41.724Z,26.68
2017-06-21T12:03:41.405Z,26.5
2017-06-21T12:04:41.693Z,26.57
2017-06-21T12:05:41.678Z,26.5
2017-06-21T12:06:41.374Z,26.54
2017-06-21T12:07:41.669Z,26.47
2017-06-21T12:08:41.653Z,26.29
2017-06-21T12:09:41.320Z,26.38
2017-06-21T12:10:41.611Z,26.34
2017-06-21T12:11:41.295Z,26.31
2017-06-21T12:12:41.391Z,26.34
2017-06-21T12:13:41.565Z,26.34
2017-06-21T12:14:41.549Z,26.38
2017-06-21T12:15:41.685Z,26.36
2017-06-21T12:16:41.516Z,26.35
2017-06-21T12:17:41.492Z,26.23
2017-06-21T12:18:41.191Z,26.12
2017-06-21T12:19:41.520Z,26.06
2017-06-21T12:20:41.463Z,26.01
2017-06-21T12:21:41.138Z,26.16
2017-06-21T12:22:41.176Z,26.08
2017-06-21T12:23:41.406Z,26.12
2017-06-21T12:24:41.390Z,26.2
2017-06-21T12:25:41.383Z,26.23
2017-06-21T12:26:41.061Z,26.31
2017-06-21T12:27:41.055Z,26.38
2017-06-21T12:28:41.389Z,26.44
2017-06-21T12:29:41.364Z,26.41
2017-06-21T12:30:41.303Z,26.42
2017-06-21T12:31:40.988Z,26.49
2017-06-21T12:32:41.283Z,26.57
2017-06-21T12:33:41.262Z,26.61
2017-06-21T12:34:41.252Z,26.71
2017-06-21T12:35:41.233Z,26.66
2017-06-21T12:36:41.543Z,26.71
2017-06-21T12:37:41.197Z,26.81
2017-06-21T12:38:41.177Z,26.84
2017-06-21T12:39:41.164Z,26.75
2017-06-21T12:40:41.149Z,26.71
2017-06-21T12:41:41.130Z,26.65
2017-06-21T12:42:41.117Z,26.69
2017-06-21T12:43:41.123Z,26.69
2017-06-21T12:44:41.092Z,26.76
2017-06-21T12:45:41.076Z,26.79
2017-06-21T12:46:41.060Z,26.78
2017-06-21T12:47:41.043Z,26.68
2017-06-21T12:48:40.723Z,26.68
2017-06-21T12:49:41.059Z,26.75
2017-06-21T12:50:40.998Z,26.75
2017-06-21T12:51:40.985Z,26.96
2017-06-21T12:52:40.963Z,27.01
2017-06-21T12:53:41.003Z,27.02
2017-06-21T12:54:40.937Z,26.98